createdAt,value
2023-03-21T00:02:17.050Z,6.20
2023-03-21T00:07:38.941Z,6.67
2023-03-21T00:13:13.015Z,6.23
2023-03-21T00:18:55.822Z,6.50
2023-03-21T00:24:23.503Z,6.00
2023-03-21T00:29:49.454Z,6.40
2023-03-21T00:35:51.278Z,6.07
2023-03-21T00:41:02.013Z,5.83
2023-03-21T00:47:06.504Z,5.97
2023-03-21T00:52:57.505Z,5.67
2023-03-21T00:58:32.776Z,5.17
2023-03-21T01:04:22.479Z,5.10
2023-03-21T01:09:46.378Z,4.30
2023-03-21T01:15:08.382Z,4.13
2023-03-21T01:20:30.377Z,3.63
2023-03-21T01:26:16.724Z,3.30
2023-03-21T01:31:59.272Z,3.30
2023-03-21T01:37:50.139Z,3.23
2023-03-21T01:43:44.985Z,3.43
2023-03-21T01:49:21.198Z,3.37
2023-03-21T01:54:48.201Z,3.20
2023-03-21T02:00:12.989Z,3.03
2023-03-21T02:06:25.837Z,3.10
2023-03-21T02:12:00.536Z,3.23
2023-03-21T02:18:07.409Z,3.30
2023-03-21T02:24:09.576Z,3.33
2023-03-21T02:29:53.614Z,3.80
2023-03-21T02:35:52.413Z,3.53
2023-03-21T02:41:29.666Z,3.53
2023-03-21T02:47:42.056Z,4.20
2023-03-21T02:53:23.042Z,4.93
2023-03-21T02:59:11.629Z,5.00
2023-03-21T03:04:49.437Z,4.63
2023-03-21T03:10:38.179Z,5.00
2023-03-21T03:16:49.015Z,5.00
2023-03-21T03:22:44.507Z,5.00
2023-03-21T03:28:20.986Z,5.30
2023-03-21T03:34:11.501Z,5.50
2023-03-21T03:39:46.102Z,4.67
2023-03-21T03:45:09.694Z,5.20
2023-03-21T03:50:58.753Z,4.83
2023-03-21T03:57:03.507Z,5.13
2023-03-21T04:02:50.364Z,5.77
2023-03-21T04:08:17.420Z,5.30
2023-03-21T04:13:49.957Z,5.07
2023-03-21T04:19:26.887Z,5.60
2023-03-21T04:24:49.395Z,5.40
2023-03-21T04:30:12.365Z,6.00
2023-03-21T04:35:45.834Z,5.90
2023-03-21T04:41:25.443Z,6.00
2023-03-21T04:46:54.864Z,6.20
2023-03-21T04:52:38.860Z,5.63
2023-03-21T04:58:18.873Z,5.97
2023-03-21T05:04:05.992Z,5.93
2023-03-21T05:10:02.580Z,6.10
2023-03-21T05:15:45.180Z,5.77
2023-03-21T05:21:10.815Z,6.10
2023-03-21T05:26:42.571Z,6.50
2023-03-21T05:32:26.614Z,6.67
2023-03-21T05:37:56.772Z,6.50
2023-03-21T05:43:40.484Z,6.60
2023-03-21T05:49:21.628Z,6.50
2023-03-21T05:54:53.650Z,5.93
2023-03-21T06:00:22.022Z,6.63
2023-03-21T06:06:07.923Z,6.60
2023-03-21T06:12:15.840Z,6.53
2023-03-21T06:18:05.414Z,6.50
2023-03-21T06:23:43.308Z,6.67
2023-03-21T06:29:13.297Z,6.20
2023-03-21T06:34:43.028Z,6.00
2023-03-21T06:40:09.806Z,6.13
2023-03-21T06:45:31.421Z,6.07
2023-03-21T06:51:15.720Z,5.83
2023-03-21T06:57:24.431Z,6.37
2023-03-21T07:03:08.189Z,5.90
2023-03-21T07:08:35.621Z,5.97
2023-03-21T07:14:12.014Z,5.67
2023-03-21T07:19:34.162Z,6.77
2023-03-21T07:25:04.672Z,5.27
2023-03-21T07:30:32.908Z,5.50
2023-03-21T07:42:16.625Z,5.60
2023-03-21T07:48:14.027Z,6.20
2023-03-21T07:53:51.682Z,5.90
2023-03-21T07:59:20.243Z,5.83
2023-03-21T08:05:07.005Z,5.70
2023-03-21T08:10:42.083Z,6.13
2023-03-21T08:16:37.041Z,6.47
2023-03-21T08:22:23.522Z,6.33
2023-03-21T08:28:07.451Z,6.00
2023-03-21T08:33:34.060Z,6.53
2023-03-21T08:39:06.934Z,6.67
2023-03-21T08:44:31.719Z,6.90
2023-03-21T08:49:53.807Z,7.00
2023-03-21T08:55:17.175Z,6.80
2023-03-21T09:00:39.062Z,5.87
2023-03-21T09:06:01.012Z,5.57
2023-03-21T09:11:32.621Z,6.00
2023-03-21T09:17:15.836Z,6.30
2023-03-21T09:23:00.697Z,4.53
2023-03-21T09:28:33.281Z,4.77
2023-03-21T09:34:16.448Z,4.30
2023-03-21T09:39:41.372Z,4.77
2023-03-21T09:45:43.482Z,6.23
2023-03-21T09:51:34.356Z,5.50
2023-03-21T09:57:15.138Z,6.00
2023-03-21T10:02:59.453Z,5.10
2023-03-21T10:08:36.716Z,5.03
2023-03-21T10:14:31.985Z,4.67
2023-03-21T10:20:16.976Z,3.60
2023-03-21T10:25:42.582Z,3.43
2023-03-21T10:31:28.620Z,2.80
2023-03-21T10:37:16.840Z,3.57
2023-03-21T10:42:58.738Z,2.30
2023-03-21T10:48:47.251Z,2.83
2023-03-21T10:54:28.569Z,2.80
2023-03-21T11:00:02.711Z,2.47
2023-03-21T11:05:39.114Z,2.43
2023-03-21T11:11:11.854Z,2.20
2023-03-21T11:16:57.832Z,2.20
2023-03-21T11:22:50.624Z,1.70
2023-03-21T11:28:52.252Z,1.87
2023-03-21T11:34:43.181Z,1.83
2023-03-21T11:40:33.584Z,2.00
2023-03-21T11:46:29.234Z,2.20
2023-03-21T11:52:28.268Z,2.10
2023-03-21T11:58:39.108Z,2.23
2023-03-21T12:04:35.277Z,2.63
2023-03-21T12:10:30.140Z,2.83
2023-03-21T12:16:29.508Z,2.43
2023-03-21T12:22:18.741Z,1.93
2023-03-21T12:28:40.136Z,2.10
2023-03-21T12:34:23.138Z,2.30
2023-03-21T12:39:49.004Z,2.37
2023-03-21T12:45:21.946Z,2.23
2023-03-21T12:50:44.521Z,1.73
2023-03-21T12:56:23.985Z,1.73
2023-03-21T13:02:15.678Z,1.70
2023-03-21T13:07:49.807Z,1.80
2023-03-21T13:13:35.628Z,2.70
2023-03-21T13:19:23.522Z,1.90
2023-03-21T13:24:55.342Z,2.00
2023-03-21T13:30:26.401Z,2.70
2023-03-21T13:36:29.551Z,2.40
2023-03-21T13:42:16.880Z,1.83
2023-03-21T13:48:03.629Z,1.87
2023-03-21T13:53:44.624Z,1.90
2023-03-21T13:59:17.750Z,2.43
2023-03-21T14:05:06.597Z,2.23
2023-03-21T14:11:18.900Z,2.20
2023-03-21T14:17:06.167Z,2.63
2023-03-21T14:22:34.241Z,2.40
2023-03-21T14:28:06.810Z,2.50
2023-03-21T14:33:37.096Z,2.00
2023-03-21T14:39:16.749Z,2.70
2023-03-21T14:44:54.033Z,3.03
2023-03-21T14:50:16.814Z,2.10
2023-03-21T14:56:12.093Z,1.90
2023-03-21T15:02:14.679Z,1.90
2023-03-21T15:07:39.580Z,1.93
2023-03-21T15:13:35.357Z,4.20
2023-03-21T15:19:09.491Z,2.40
2023-03-21T15:24:39.926Z,2.63
2023-03-21T15:30:01.904Z,3.33
2023-03-21T15:35:37.832Z,2.87
2023-03-21T15:41:30.099Z,2.47
2023-03-21T15:47:21.967Z,3.00
2023-03-21T15:53:10.532Z,2.80
2023-03-21T15:58:50.523Z,2.27
2023-03-21T16:04:41.239Z,7.90
2023-03-21T16:10:39.749Z,4.23
2023-03-21T16:16:20.448Z,2.40
2023-03-21T16:22:06.589Z,2.40
2023-03-21T16:27:59.874Z,2.70
2023-03-21T16:33:30.168Z,4.40
2023-03-21T16:38:53.879Z,2.60
2023-03-21T16:44:15.883Z,3.50
2023-03-21T16:49:37.697Z,2.70
2023-03-21T16:55:01.834Z,2.93
2023-03-21T17:00:27.360Z,2.93
2023-03-21T17:05:48.651Z,3.17
2023-03-21T17:11:20.333Z,2.60
2023-03-21T17:16:43.234Z,2.77
2023-03-21T17:22:05.035Z,2.50
2023-03-21T17:27:27.298Z,2.07
2023-03-21T17:32:50.625Z,2.27
2023-03-21T17:38:17.504Z,2.80
2023-03-21T17:43:39.395Z,3.00
2023-03-21T17:49:00.797Z,3.40
2023-03-21T17:54:22.490Z,2.80
2023-03-21T17:59:43.863Z,2.50
2023-03-21T18:05:06.060Z,2.60
2023-03-21T18:10:28.689Z,2.80
2023-03-21T18:15:50.969Z,2.50
2023-03-21T18:21:19.622Z,2.23
2023-03-21T18:26:42.813Z,2.40
2023-03-21T18:32:07.719Z,2.60
2023-03-21T18:37:35.393Z,2.37
2023-03-21T18:43:49.998Z,2.80
2023-03-21T18:48:39.369Z,2.73
2023-03-21T18:54:02.010Z,3.27
2023-03-21T18:59:23.710Z,3.50
2023-03-21T19:04:45.602Z,3.70
2023-03-21T19:10:17.588Z,3.87
2023-03-21T19:15:41.350Z,3.93
2023-03-21T19:21:03.709Z,3.93
2023-03-21T19:26:26.136Z,4.30
2023-03-21T19:31:51.220Z,4.83
2023-03-21T19:37:12.763Z,5.10
2023-03-21T19:42:36.462Z,5.50
2023-03-21T19:47:58.017Z,5.23
2023-03-21T19:53:20.107Z,4.90
2023-03-21T19:58:42.525Z,4.83
2023-03-21T20:04:04.359Z,4.67
2023-03-21T20:09:57.291Z,5.20
2023-03-21T20:15:16.978Z,4.47
2023-03-21T20:20:40.224Z,4.50
2023-03-21T20:26:08.200Z,4.10
2023-03-21T20:31:29.863Z,3.53
2023-03-21T20:36:51.603Z,3.00
2023-03-21T20:42:13.192Z,2.93
2023-03-21T20:47:35.477Z,2.90
2023-03-21T20:53:06.957Z,3.00
2023-03-21T20:58:57.136Z,4.10
2023-03-21T21:04:19.377Z,4.37
2023-03-21T21:09:40.892Z,4.50
2023-03-21T21:15:02.853Z,4.80
2023-03-21T21:20:25.347Z,4.73
2023-03-21T21:25:53.453Z,4.83
2023-03-21T21:31:17.330Z,5.10
2023-03-21T21:36:39.024Z,5.23
2023-03-21T21:42:00.593Z,5.23
2023-03-21T21:47:22.191Z,5.10
2023-03-21T21:52:44.120Z,5.77
2023-03-21T21:58:08.529Z,5.77
2023-03-21T22:03:41.127Z,5.80
2023-03-21T22:09:04.656Z,6.20
2023-03-21T22:14:26.376Z,6.13
2023-03-21T22:20:02.622Z,6.67
2023-03-21T22:25:27.444Z,6.70
2023-03-21T22:30:49.431Z,6.63
2023-03-21T22:36:11.288Z,6.23
2023-03-21T22:41:32.918Z,7.30
2023-03-21T22:46:54.471Z,6.87
2023-03-21T22:52:16.195Z,7.00
2023-03-21T22:57:37.666Z,7.80
2023-03-21T23:03:00.012Z,7.87
2023-03-21T23:08:21.625Z,7.73
2023-03-21T23:13:46.848Z,7.70
2023-03-21T23:19:12.437Z,8.43
2023-03-21T23:24:33.848Z,8.30
2023-03-21T23:29:56.777Z,8.23
2023-03-21T23:35:18.743Z,7.80
2023-03-21T23:40:40.646Z,8.10
2023-03-21T23:46:03.154Z,7.63
2023-03-21T23:51:25.146Z,7.67
2023-03-21T23:56:46.553Z,7.80
